sensor_id;sensor_type;location;lat;lon;timestamp;P1;durP1;ratioP1;P2;durP2;ratioP2
61702;SDS011;47622;47.726;3.298;2022-11-10T00:00:19;6.55;;;3.85;;
61702;SDS011;47622;47.726;3.298;2022-11-10T00:02:45;7.03;;;3.65;;
61702;SDS011;47622;47.726;3.298;2022-11-10T00:05:12;9.98;;;3.60;;
61702;SDS011;47622;47.726;3.298;2022-11-10T00:07:38;8.43;;;3.75;;
61702;SDS011;47622;47.726;3.298;2022-11-10T00:10:04;5.88;;;3.65;;
61702;SDS011;47622;47.726;3.298;2022-11-10T00:12:30;5.40;;;3.28;;
61702;SDS011;47622;47.726;3.298;2022-11-10T00:14:57;6.40;;;3.53;;
61702;SDS011;47622;47.726;3.298;2022-11-10T00:17:42;6.00;;;2.63;;
61702;SDS011;47622;47.726;3.298;2022-11-10T00:20:09;3.97;;;2.53;;
61702;SDS011;47622;47.726;3.298;2022-11-10T00:22:36;2.70;;;2.15;;
61702;SDS011;47622;47.726;3.298;2022-11-10T00:25:03;4.32;;;2.25;;
61702;SDS011;47622;47.726;3.298;2022-11-10T00:27:30;4.25;;;2.50;;
61702;SDS011;47622;47.726;3.298;2022-11-10T00:29:56;8.05;;;2.53;;
61702;SDS011;47622;47.726;3.298;2022-11-10T00:32:22;4.30;;;2.20;;
61702;SDS011;47622;47.726;3.298;2022-11-10T00:34:48;2.35;;;1.90;;
61702;SDS011;47622;47.726;3.298;2022-11-10T00:37:13;3.58;;;2.63;;
61702;SDS011;47622;47.726;3.298;2022-11-10T00:39:39;3.50;;;2.50;;
61702;SDS011;47622;47.726;3.298;2022-11-10T00:42:05;3.83;;;1.95;;
61702;SDS011;47622;47.726;3.298;2022-11-10T00:44:31;2.72;;;2.28;;
61702;SDS011;47622;47.726;3.298;2022-11-10T00:46:57;2.60;;;2.10;;
61702;SDS011;47622;47.726;3.298;2022-11-10T00:49:23;2.53;;;2.28;;
61702;SDS011;47622;47.726;3.298;2022-11-10T00:51:49;2.55;;;2.00;;
61702;SDS011;47622;47.726;3.298;2022-11-10T00:54:14;2.83;;;1.98;;
61702;SDS011;47622;47.726;3.298;2022-11-10T00:56:40;3.03;;;2.60;;
61702;SDS011;47622;47.726;3.298;2022-11-10T00:59:06;2.97;;;2.17;;
61702;SDS011;47622;47.726;3.298;2022-11-10T01:01:32;2.30;;;2.10;;
61702;SDS011;47622;47.726;3.298;2022-11-10T01:03:57;2.40;;;2.20;;
61702;SDS011;47622;47.726;3.298;2022-11-10T01:06:23;2.10;;;1.90;;
61702;SDS011;47622;47.726;3.298;2022-11-10T01:08:49;2.40;;;2.20;;
61702;SDS011;47622;47.726;3.298;2022-11-10T01:11:26;2.70;;;2.47;;
61702;SDS011;47622;47.726;3.298;2022-11-10T01:13:53;3.10;;;2.75;;
61702;SDS011;47622;47.726;3.298;2022-11-10T01:16:23;3.40;;;2.50;;
61702;SDS011;47622;47.726;3.298;2022-11-10T01:18:51;3.28;;;2.72;;
61702;SDS011;47622;47.726;3.298;2022-11-10T01:21:18;2.80;;;2.50;;
61702;SDS011;47622;47.726;3.298;2022-11-10T01:23:45;3.17;;;2.88;;
61702;SDS011;47622;47.726;3.298;2022-11-10T01:26:11;3.50;;;2.78;;
61702;SDS011;47622;47.726;3.298;2022-11-10T01:28:38;3.47;;;3.03;;
61702;SDS011;47622;47.726;3.298;2022-11-10T01:31:05;5.50;;;3.90;;
61702;SDS011;47622;47.726;3.298;2022-11-10T01:33:34;6.75;;;4.18;;
61702;SDS011;47622;47.726;3.298;2022-11-10T01:36:00;4.75;;;3.63;;
61702;SDS011;47622;47.726;3.298;2022-11-10T01:38:26;5.70;;;3.38;;
61702;SDS011;47622;47.726;3.298;2022-11-10T01:40:56;5.32;;;3.30;;
61702;SDS011;47622;47.726;3.298;2022-11-10T01:43:23;2.88;;;2.58;;
61702;SDS011;47622;47.726;3.298;2022-11-10T01:45:50;5.47;;;2.63;;
61702;SDS011;47622;47.726;3.298;2022-11-10T01:48:25;3.10;;;2.70;;
61702;SDS011;47622;47.726;3.298;2022-11-10T01:50:56;2.90;;;2.50;;
61702;SDS011;47622;47.726;3.298;2022-11-10T01:53:29;2.92;;;2.50;;
61702;SDS011;47622;47.726;3.298;2022-11-10T01:55:56;2.58;;;2.38;;
61702;SDS011;47622;47.726;3.298;2022-11-10T01:58:27;2.53;;;2.20;;
61702;SDS011;47622;47.726;3.298;2022-11-10T02:00:56;2.50;;;2.30;;
61702;SDS011;47622;47.726;3.298;2022-11-10T02:03:28;2.92;;;2.53;;
61702;SDS011;47622;47.726;3.298;2022-11-10T02:05:57;3.63;;;3.05;;
61702;SDS011;47622;47.726;3.298;2022-11-10T02:08:23;3.47;;;3.00;;
61702;SDS011;47622;47.726;3.298;2022-11-10T02:10:49;4.00;;;3.08;;
61702;SDS011;47622;47.726;3.298;2022-11-10T02:13:15;3.92;;;3.15;;
61702;SDS011;47622;47.726;3.298;2022-11-10T02:15:41;3.30;;;2.83;;
61702;SDS011;47622;47.726;3.298;2022-11-10T02:18:07;3.55;;;2.80;;
61702;SDS011;47622;47.726;3.298;2022-11-10T02:20:32;3.63;;;3.10;;
61702;SDS011;47622;47.726;3.298;2022-11-10T02:23:09;3.10;;;2.60;;
61702;SDS011;47622;47.726;3.298;2022-11-10T02:25:38;3.33;;;2.90;;
61702;SDS011;47622;47.726;3.298;2022-11-10T02:28:03;4.07;;;2.92;;
61702;SDS011;47622;47.726;3.298;2022-11-10T02:30:29;3.13;;;2.80;;
61702;SDS011;47622;47.726;3.298;2022-11-10T02:32:55;3.78;;;2.92;;
61702;SDS011;47622;47.726;3.298;2022-11-10T02:35:20;7.78;;;3.20;;
61702;SDS011;47622;47.726;3.298;2022-11-10T02:37:46;2.97;;;2.67;;
61702;SDS011;47622;47.726;3.298;2022-11-10T02:40:12;2.72;;;2.53;;
61702;SDS011;47622;47.726;3.298;2022-11-10T02:42:38;3.85;;;2.65;;
61702;SDS011;47622;47.726;3.298;2022-11-10T02:45:04;2.45;;;2.20;;
61702;SDS011;47622;47.726;3.298;2022-11-10T02:47:31;3.70;;;2.30;;
61702;SDS011;47622;47.726;3.298;2022-11-10T02:49:57;3.63;;;2.30;;
61702;SDS011;47622;47.726;3.298;2022-11-10T02:52:22;3.65;;;2.58;;
61702;SDS011;47622;47.726;3.298;2022-11-10T02:54:48;2.95;;;2.50;;
61702;SDS011;47622;47.726;3.298;2022-11-10T02:57:13;4.78;;;2.65;;
61702;SDS011;47622;47.726;3.298;2022-11-10T02:59:39;3.08;;;2.65;;
61702;SDS011;47622;47.726;3.298;2022-11-10T03:02:05;3.13;;;2.35;;
61702;SDS011;47622;47.726;3.298;2022-11-10T03:04:30;2.47;;;2.25;;
61702;SDS011;47622;47.726;3.298;2022-11-10T03:06:56;2.25;;;1.88;;
61702;SDS011;47622;47.726;3.298;2022-11-10T03:09:21;2.20;;;2.00;;
61702;SDS011;47622;47.726;3.298;2022-11-10T03:11:47;2.53;;;2.10;;
61702;SDS011;47622;47.726;3.298;2022-11-10T03:14:13;3.08;;;2.53;;
61702;SDS011;47622;47.726;3.298;2022-11-10T03:16:38;2.95;;;2.50;;
61702;SDS011;47622;47.726;3.298;2022-11-10T03:19:04;2.42;;;2.20;;
61702;SDS011;47622;47.726;3.298;2022-11-10T03:21:30;2.35;;;2.15;;
61702;SDS011;47622;47.726;3.298;2022-11-10T03:23:55;2.65;;;2.30;;
61702;SDS011;47622;47.726;3.298;2022-11-10T03:26:21;2.05;;;1.80;;
61702;SDS011;47622;47.726;3.298;2022-11-10T03:28:46;1.98;;;1.60;;
61702;SDS011;47622;47.726;3.298;2022-11-10T03:31:13;2.10;;;1.90;;
61702;SDS011;47622;47.726;3.298;2022-11-10T03:33:39;2.85;;;1.95;;
61702;SDS011;47622;47.726;3.298;2022-11-10T03:36:04;1.90;;;1.77;;
61702;SDS011;47622;47.726;3.298;2022-11-10T03:38:30;2.30;;;2.10;;
61702;SDS011;47622;47.726;3.298;2022-11-10T03:40:56;2.22;;;1.88;;
61702;SDS011;47622;47.726;3.298;2022-11-10T03:43:21;2.17;;;1.85;;
61702;SDS011;47622;47.726;3.298;2022-11-10T03:45:47;1.98;;;1.60;;
61702;SDS011;47622;47.726;3.298;2022-11-10T03:48:13;2.10;;;1.80;;
61702;SDS011;47622;47.726;3.298;2022-11-10T03:50:38;1.90;;;1.70;;
61702;SDS011;47622;47.726;3.298;2022-11-10T03:53:04;1.70;;;1.60;;
61702;SDS011;47622;47.726;3.298;2022-11-10T03:55:29;1.60;;;1.50;;
61702;SDS011;47622;47.726;3.298;2022-11-10T03:57:59;1.55;;;1.45;;
61702;SDS011;47622;47.726;3.298;2022-11-10T04:00:26;1.50;;;1.40;;
61702;SDS011;47622;47.726;3.298;2022-11-10T04:02:53;2.47;;;1.60;;
61702;SDS011;47622;47.726;3.298;2022-11-10T04:05:19;2.33;;;1.70;;
61702;SDS011;47622;47.726;3.298;2022-11-10T04:08:04;1.60;;;1.50;;
61702;SDS011;47622;47.726;3.298;2022-11-10T04:10:56;2.63;;;1.70;;
61702;SDS011;47622;47.726;3.298;2022-11-10T04:13:22;1.60;;;1.50;;
61702;SDS011;47622;47.726;3.298;2022-11-10T04:16:06;1.70;;;1.60;;
61702;SDS011;47622;47.726;3.298;2022-11-10T04:18:32;1.90;;;1.80;;
61702;SDS011;47622;47.726;3.298;2022-11-10T04:20:58;2.15;;;1.80;;
61702;SDS011;47622;47.726;3.298;2022-11-10T04:23:26;2.25;;;1.90;;
61702;SDS011;47622;47.726;3.298;2022-11-10T04:28:44;2.20;;;2.00;;
61702;SDS011;47622;47.726;3.298;2022-11-10T04:31:13;2.20;;;2.00;;
61702;SDS011;47622;47.726;3.298;2022-11-10T04:33:40;2.38;;;1.90;;
61702;SDS011;47622;47.726;3.298;2022-11-10T04:36:07;4.22;;;2.58;;
61702;SDS011;47622;47.726;3.298;2022-11-10T04:38:34;2.08;;;1.70;;
61702;SDS011;47622;47.726;3.298;2022-11-10T04:41:00;1.73;;;1.63;;
61702;SDS011;47622;47.726;3.298;2022-11-10T04:43:25;2.17;;;1.98;;
61702;SDS011;47622;47.726;3.298;2022-11-10T04:45:51;1.70;;;1.60;;
61702;SDS011;47622;47.726;3.298;2022-11-10T04:48:17;2.17;;;1.70;;
61702;SDS011;47622;47.726;3.298;2022-11-10T04:50:43;5.25;;;1.80;;
61702;SDS011;47622;47.726;3.298;2022-11-10T04:53:09;6.57;;;1.90;;
61702;SDS011;47622;47.726;3.298;2022-11-10T04:55:37;1.90;;;1.60;;
61702;SDS011;47622;47.726;3.298;2022-11-10T04:58:05;1.80;;;1.70;;
61702;SDS011;47622;47.726;3.298;2022-11-10T05:00:31;2.67;;;2.00;;
61702;SDS011;47622;47.726;3.298;2022-11-10T05:03:00;2.00;;;1.80;;
61702;SDS011;47622;47.726;3.298;2022-11-10T05:05:27;2.63;;;1.83;;
61702;SDS011;47622;47.726;3.298;2022-11-10T05:07:52;3.00;;;2.08;;
61702;SDS011;47622;47.726;3.298;2022-11-10T05:10:18;2.28;;;2.08;;
61702;SDS011;47622;47.726;3.298;2022-11-10T05:12:43;2.00;;;1.80;;
61702;SDS011;47622;47.726;3.298;2022-11-10T05:15:09;2.25;;;1.77;;
61702;SDS011;47622;47.726;3.298;2022-11-10T05:17:35;1.75;;;1.50;;
61702;SDS011;47622;47.726;3.298;2022-11-10T05:20:01;2.45;;;1.65;;
61702;SDS011;47622;47.726;3.298;2022-11-10T05:22:27;2.40;;;2.03;;
61702;SDS011;47622;47.726;3.298;2022-11-10T05:24:53;4.40;;;2.50;;
61702;SDS011;47622;47.726;3.298;2022-11-10T05:27:18;6.38;;;3.30;;
61702;SDS011;47622;47.726;3.298;2022-11-10T05:29:44;5.20;;;3.45;;
61702;SDS011;47622;47.726;3.298;2022-11-10T05:32:10;4.60;;;3.00;;
61702;SDS011;47622;47.726;3.298;2022-11-10T05:34:35;3.50;;;2.75;;
61702;SDS011;47622;47.726;3.298;2022-11-10T05:37:01;2.75;;;2.30;;
61702;SDS011;47622;47.726;3.298;2022-11-10T05:39:26;6.68;;;2.50;;
61702;SDS011;47622;47.726;3.298;2022-11-10T05:41:52;2.17;;;1.98;;
61702;SDS011;47622;47.726;3.298;2022-11-10T05:44:18;2.75;;;2.35;;
61702;SDS011;47622;47.726;3.298;2022-11-10T05:46:43;2.20;;;2.00;;
61702;SDS011;47622;47.726;3.298;2022-11-10T05:49:09;2.38;;;2.10;;
61702;SDS011;47622;47.726;3.298;2022-11-10T05:51:35;2.67;;;2.20;;
61702;SDS011;47622;47.726;3.298;2022-11-10T05:54:00;3.00;;;2.08;;
61702;SDS011;47622;47.726;3.298;2022-11-10T05:56:26;2.67;;;2.10;;
61702;SDS011;47622;47.726;3.298;2022-11-10T05:58:51;1.98;;;1.77;;
61702;SDS011;47622;47.726;3.298;2022-11-10T06:01:17;2.72;;;2.08;;
61702;SDS011;47622;47.726;3.298;2022-11-10T06:03:43;2.83;;;2.00;;
61702;SDS011;47622;47.726;3.298;2022-11-10T06:06:08;3.20;;;2.20;;
61702;SDS011;47622;47.726;3.298;2022-11-10T06:08:34;2.38;;;2.05;;
61702;SDS011;47622;47.726;3.298;2022-11-10T06:10:59;3.28;;;2.28;;
61702;SDS011;47622;47.726;3.298;2022-11-10T06:13:25;2.45;;;2.05;;
61702;SDS011;47622;47.726;3.298;2022-11-10T06:15:51;3.42;;;1.95;;
61702;SDS011;47622;47.726;3.298;2022-11-10T06:18:16;3.97;;;2.30;;
61702;SDS011;47622;47.726;3.298;2022-11-10T06:20:42;4.50;;;2.35;;
61702;SDS011;47622;47.726;3.298;2022-11-10T06:23:10;2.03;;;1.85;;
61702;SDS011;47622;47.726;3.298;2022-11-10T06:25:38;2.20;;;1.90;;
61702;SDS011;47622;47.726;3.298;2022-11-10T06:28:05;1.90;;;1.67;;
61702;SDS011;47622;47.726;3.298;2022-11-10T06:30:32;3.45;;;2.15;;
61702;SDS011;47622;47.726;3.298;2022-11-10T06:32:59;2.40;;;2.20;;
61702;SDS011;47622;47.726;3.298;2022-11-10T06:35:26;3.33;;;2.05;;
61702;SDS011;47622;47.726;3.298;2022-11-10T06:37:57;2.20;;;2.08;;
61702;SDS011;47622;47.726;3.298;2022-11-10T06:40:34;2.15;;;1.40;;
61702;SDS011;47622;47.726;3.298;2022-11-10T06:43:00;3.28;;;1.63;;
61702;SDS011;47622;47.726;3.298;2022-11-10T06:45:26;1.45;;;1.35;;
61702;SDS011;47622;47.726;3.298;2022-11-10T06:48:25;1.67;;;1.58;;
61702;SDS011;47622;47.726;3.298;2022-11-10T06:50:44;3.00;;;1.70;;
61702;SDS011;47622;47.726;3.298;2022-11-10T06:53:10;1.70;;;1.60;;
61702;SDS011;47622;47.726;3.298;2022-11-10T06:55:37;3.50;;;1.92;;
61702;SDS011;47622;47.726;3.298;2022-11-10T06:58:03;1.83;;;1.67;;
61702;SDS011;47622;47.726;3.298;2022-11-10T07:00:29;4.28;;;1.90;;
61702;SDS011;47622;47.726;3.298;2022-11-10T07:03:04;2.22;;;1.73;;
61702;SDS011;47622;47.726;3.298;2022-11-10T07:05:32;2.67;;;2.10;;
61702;SDS011;47622;47.726;3.298;2022-11-10T07:08:03;1.92;;;1.70;;
61702;SDS011;47622;47.726;3.298;2022-11-10T07:10:34;1.60;;;1.50;;
61702;SDS011;47622;47.726;3.298;2022-11-10T07:13:00;3.22;;;1.80;;
61702;SDS011;47622;47.726;3.298;2022-11-10T07:15:27;1.63;;;1.52;;
61702;SDS011;47622;47.726;3.298;2022-11-10T07:17:53;3.00;;;1.90;;
61702;SDS011;47622;47.726;3.298;2022-11-10T07:20:19;1.70;;;1.50;;
61702;SDS011;47622;47.726;3.298;2022-11-10T07:22:45;3.03;;;1.73;;
61702;SDS011;47622;47.726;3.298;2022-11-10T07:25:11;4.18;;;2.00;;
61702;SDS011;47622;47.726;3.298;2022-11-10T07:27:36;6.47;;;2.00;;
61702;SDS011;47622;47.726;3.298;2022-11-10T07:30:03;5.95;;;1.80;;
61702;SDS011;47622;47.726;3.298;2022-11-10T07:32:29;3.25;;;1.90;;
61702;SDS011;47622;47.726;3.298;2022-11-10T07:34:55;2.30;;;2.10;;
61702;SDS011;47622;47.726;3.298;2022-11-10T07:37:21;3.60;;;1.90;;
61702;SDS011;47622;47.726;3.298;2022-11-10T07:39:46;2.63;;;1.90;;
61702;SDS011;47622;47.726;3.298;2022-11-10T07:42:12;1.63;;;1.52;;
61702;SDS011;47622;47.726;3.298;2022-11-10T07:44:37;1.70;;;1.40;;
61702;SDS011;47622;47.726;3.298;2022-11-10T07:47:03;4.18;;;2.15;;
61702;SDS011;47622;47.726;3.298;2022-11-10T07:49:29;8.18;;;1.65;;
61702;SDS011;47622;47.726;3.298;2022-11-10T07:51:54;7.97;;;1.20;;
61702;SDS011;47622;47.726;3.298;2022-11-10T07:54:20;2.28;;;1.25;;
61702;SDS011;47622;47.726;3.298;2022-11-10T07:56:45;8.35;;;1.30;;
61702;SDS011;47622;47.726;3.298;2022-11-10T07:59:11;6.93;;;1.50;;
61702;SDS011;47622;47.726;3.298;2022-11-10T08:01:37;4.03;;;1.42;;
61702;SDS011;47622;47.726;3.298;2022-11-10T08:04:02;15.68;;;1.95;;
61702;SDS011;47622;47.726;3.298;2022-11-10T08:06:29;2.70;;;1.40;;
61702;SDS011;47622;47.726;3.298;2022-11-10T08:08:55;3.50;;;1.25;;
61702;SDS011;47622;47.726;3.298;2022-11-10T08:11:21;1.88;;;1.20;;
61702;SDS011;47622;47.726;3.298;2022-11-10T08:13:46;3.35;;;1.30;;
61702;SDS011;47622;47.726;3.298;2022-11-10T08:16:12;6.75;;;1.40;;
61702;SDS011;47622;47.726;3.298;2022-11-10T08:18:37;1.00;;;1.00;;
61702;SDS011;47622;47.726;3.298;2022-11-10T08:21:03;2.63;;;1.20;;
61702;SDS011;47622;47.726;3.298;2022-11-10T08:23:29;7.15;;;1.50;;
61702;SDS011;47622;47.726;3.298;2022-11-10T08:25:59;6.93;;;1.60;;
61702;SDS011;47622;47.726;3.298;2022-11-10T08:28:25;3.78;;;1.30;;
61702;SDS011;47622;47.726;3.298;2022-11-10T08:30:51;3.80;;;1.30;;
61702;SDS011;47622;47.726;3.298;2022-11-10T08:33:18;1.92;;;1.20;;
61702;SDS011;47622;47.726;3.298;2022-11-10T08:35:46;3.22;;;1.33;;
61702;SDS011;47622;47.726;3.298;2022-11-10T08:38:14;2.65;;;1.33;;
61702;SDS011;47622;47.726;3.298;2022-11-10T08:40:42;1.85;;;1.30;;
61702;SDS011;47622;47.726;3.298;2022-11-10T08:43:08;1.38;;;1.27;;
61702;SDS011;47622;47.726;3.298;2022-11-10T08:45:37;1.85;;;1.20;;
61702;SDS011;47622;47.726;3.298;2022-11-10T08:48:04;1.25;;;1.13;;
61702;SDS011;47622;47.726;3.298;2022-11-10T08:50:41;5.28;;;1.40;;
61702;SDS011;47622;47.726;3.298;2022-11-10T08:53:09;1.23;;;1.10;;
61702;SDS011;47622;47.726;3.298;2022-11-10T08:55:36;1.50;;;1.27;;
61702;SDS011;47622;47.726;3.298;2022-11-10T08:58:03;2.83;;;1.50;;
61702;SDS011;47622;47.726;3.298;2022-11-10T09:00:30;1.70;;;1.50;;
61702;SDS011;47622;47.726;3.298;2022-11-10T09:03:18;6.78;;;1.80;;
61702;SDS011;47622;47.726;3.298;2022-11-10T09:05:47;4.57;;;1.60;;
61702;SDS011;47622;47.726;3.298;2022-11-10T09:08:14;1.42;;;1.30;;
61702;SDS011;47622;47.726;3.298;2022-11-10T09:10:41;1.63;;;1.40;;
61702;SDS011;47622;47.726;3.298;2022-11-10T09:13:09;4.60;;;1.67;;
61702;SDS011;47622;47.726;3.298;2022-11-10T09:15:35;3.55;;;1.50;;
61702;SDS011;47622;47.726;3.298;2022-11-10T09:18:02;2.72;;;1.60;;
61702;SDS011;47622;47.726;3.298;2022-11-10T09:20:30;1.63;;;1.50;;
61702;SDS011;47622;47.726;3.298;2022-11-10T09:23:08;6.22;;;1.55;;
61702;SDS011;47622;47.726;3.298;2022-11-10T09:25:35;7.63;;;1.80;;
61702;SDS011;47622;47.726;3.298;2022-11-10T09:28:01;2.28;;;1.52;;
61702;SDS011;47622;47.726;3.298;2022-11-10T09:30:27;1.50;;;1.40;;
61702;SDS011;47622;47.726;3.298;2022-11-10T09:32:55;1.52;;;1.42;;
61702;SDS011;47622;47.726;3.298;2022-11-10T09:35:22;1.92;;;1.40;;
61702;SDS011;47622;47.726;3.298;2022-11-10T09:37:48;4.53;;;1.52;;
61702;SDS011;47622;47.726;3.298;2022-11-10T09:40:27;1.80;;;1.50;;
61702;SDS011;47622;47.726;3.298;2022-11-10T09:43:02;4.43;;;1.70;;
61702;SDS011;47622;47.726;3.298;2022-11-10T09:45:33;1.42;;;1.33;;
61702;SDS011;47622;47.726;3.298;2022-11-10T09:48:05;1.75;;;1.60;;
61702;SDS011;47622;47.726;3.298;2022-11-10T09:50:38;1.85;;;1.40;;
61702;SDS011;47622;47.726;3.298;2022-11-10T09:55:41;1.77;;;1.50;;
61702;SDS011;47622;47.726;3.298;2022-11-10T09:58:13;5.80;;;2.30;;
61702;SDS011;47622;47.726;3.298;2022-11-10T10:00:49;4.38;;;1.52;;
61702;SDS011;47622;47.726;3.298;2022-11-10T10:03:23;4.20;;;1.55;;
61702;SDS011;47622;47.726;3.298;2022-11-10T10:06:00;4.53;;;1.92;;
61702;SDS011;47622;47.726;3.298;2022-11-10T10:11:20;2.10;;;1.73;;
61702;SDS011;47622;47.726;3.298;2022-11-10T10:19:36;2.13;;;1.92;;
61702;SDS011;47622;47.726;3.298;2022-11-10T10:24:38;4.40;;;1.73;;
61702;SDS011;47622;47.726;3.298;2022-11-10T10:27:05;3.38;;;1.85;;
61702;SDS011;47622;47.726;3.298;2022-11-10T10:29:39;2.92;;;1.83;;
61702;SDS011;47622;47.726;3.298;2022-11-10T10:32:09;3.47;;;1.90;;
61702;SDS011;47622;47.726;3.298;2022-11-10T10:34:37;2.63;;;2.20;;
61702;SDS011;47622;47.726;3.298;2022-11-10T10:37:03;3.22;;;1.80;;
61702;SDS011;47622;47.726;3.298;2022-11-10T10:39:48;4.90;;;2.20;;
61702;SDS011;47622;47.726;3.298;2022-11-10T10:42:19;3.15;;;2.03;;
61702;SDS011;47622;47.726;3.298;2022-11-10T10:47:49;2.85;;;2.10;;
61702;SDS011;47622;47.726;3.298;2022-11-10T10:53:11;3.67;;;2.05;;
61702;SDS011;47622;47.726;3.298;2022-11-10T10:55:54;2.88;;;2.08;;
61702;SDS011;47622;47.726;3.298;2022-11-10T11:00:57;2.13;;;1.88;;
61702;SDS011;47622;47.726;3.298;2022-11-10T11:03:38;4.35;;;2.50;;
61702;SDS011;47622;47.726;3.298;2022-11-10T11:06:11;3.67;;;2.10;;
61702;SDS011;47622;47.726;3.298;2022-11-10T11:11:24;5.72;;;2.45;;
61702;SDS011;47622;47.726;3.298;2022-11-10T11:16:55;5.15;;;2.40;;
61702;SDS011;47622;47.726;3.298;2022-11-10T11:19:28;4.50;;;2.25;;
61702;SDS011;47622;47.726;3.298;2022-11-10T11:30:21;2.58;;;2.00;;
61702;SDS011;47622;47.726;3.298;2022-11-10T11:32:49;4.00;;;2.20;;
61702;SDS011;47622;47.726;3.298;2022-11-10T11:46:33;5.85;;;2.83;;
61702;SDS011;47622;47.726;3.298;2022-11-10T11:58:19;5.43;;;3.08;;
61702;SDS011;47622;47.726;3.298;2022-11-10T12:09:23;3.63;;;2.35;;
61702;SDS011;47622;47.726;3.298;2022-11-10T12:12:13;6.00;;;2.90;;
61702;SDS011;47622;47.726;3.298;2022-11-10T12:20:58;5.25;;;3.03;;
61702;SDS011;47622;47.726;3.298;2022-11-10T12:28:28;3.42;;;2.50;;
61702;SDS011;47622;47.726;3.298;2022-11-10T12:30:59;4.72;;;2.80;;
61702;SDS011;47622;47.726;3.298;2022-11-10T12:33:36;3.92;;;2.72;;
61702;SDS011;47622;47.726;3.298;2022-11-10T12:36:07;2.90;;;2.38;;
61702;SDS011;47622;47.726;3.298;2022-11-10T12:41:44;5.90;;;2.88;;
61702;SDS011;47622;47.726;3.298;2022-11-10T12:46:42;4.60;;;2.50;;
61702;SDS011;47622;47.726;3.298;2022-11-10T12:51:45;5.65;;;2.63;;
61702;SDS011;47622;47.726;3.298;2022-11-10T12:54:17;5.05;;;2.70;;
61702;SDS011;47622;47.726;3.298;2022-11-10T12:56:47;4.57;;;2.50;;
61702;SDS011;47622;47.726;3.298;2022-11-10T13:01:45;3.72;;;2.53;;
61702;SDS011;47622;47.726;3.298;2022-11-10T13:04:22;4.60;;;2.38;;
61702;SDS011;47622;47.726;3.298;2022-11-10T13:06:48;6.00;;;3.30;;
61702;SDS011;47622;47.726;3.298;2022-11-10T13:09:24;4.00;;;2.22;;
61702;SDS011;47622;47.726;3.298;2022-11-10T13:14:35;4.13;;;2.67;;
61702;SDS011;47622;47.726;3.298;2022-11-10T13:17:05;2.97;;;2.35;;
61702;SDS011;47622;47.726;3.298;2022-11-10T13:22:26;4.30;;;3.00;;
61702;SDS011;47622;47.726;3.298;2022-11-10T13:27:59;5.80;;;3.28;;
61702;SDS011;47622;47.726;3.298;2022-11-10T13:30:44;6.13;;;3.00;;
61702;SDS011;47622;47.726;3.298;2022-11-10T13:33:55;5.82;;;2.67;;
61702;SDS011;47622;47.726;3.298;2022-11-10T13:36:01;8.50;;;3.58;;
61702;SDS011;47622;47.726;3.298;2022-11-10T13:41:17;5.35;;;2.63;;
61702;SDS011;47622;47.726;3.298;2022-11-10T13:43:47;2.70;;;2.30;;
61702;SDS011;47622;47.726;3.298;2022-11-10T13:46:14;5.47;;;2.80;;
61702;SDS011;47622;47.726;3.298;2022-11-10T13:51:36;4.13;;;2.05;;
61702;SDS011;47622;47.726;3.298;2022-11-10T13:54:24;8.43;;;3.50;;
61702;SDS011;47622;47.726;3.298;2022-11-10T14:03:00;4.68;;;2.70;;
61702;SDS011;47622;47.726;3.298;2022-11-10T14:10:37;5.85;;;2.78;;
61702;SDS011;47622;47.726;3.298;2022-11-10T14:13:11;4.40;;;2.75;;
61702;SDS011;47622;47.726;3.298;2022-11-10T14:15:44;6.35;;;3.10;;
61702;SDS011;47622;47.726;3.298;2022-11-10T14:18:23;3.95;;;2.33;;
61702;SDS011;47622;47.726;3.298;2022-11-10T14:20:59;3.88;;;2.47;;
61702;SDS011;47622;47.726;3.298;2022-11-10T14:23:33;4.15;;;2.80;;
61702;SDS011;47622;47.726;3.298;2022-11-10T14:26:11;7.53;;;3.70;;
61702;SDS011;47622;47.726;3.298;2022-11-10T14:28:45;4.32;;;2.90;;
61702;SDS011;47622;47.726;3.298;2022-11-10T14:31:16;6.03;;;3.00;;
61702;SDS011;47622;47.726;3.298;2022-11-10T14:33:56;6.10;;;3.33;;
61702;SDS011;47622;47.726;3.298;2022-11-10T14:36:23;5.40;;;3.47;;
61702;SDS011;47622;47.726;3.298;2022-11-10T14:38:50;5.43;;;3.63;;
61702;SDS011;47622;47.726;3.298;2022-11-10T14:41:17;5.25;;;3.22;;
61702;SDS011;47622;47.726;3.298;2022-11-10T14:43:57;7.53;;;3.28;;
61702;SDS011;47622;47.726;3.298;2022-11-10T14:46:27;6.10;;;3.53;;
61702;SDS011;47622;47.726;3.298;2022-11-10T14:48:57;6.40;;;3.33;;
61702;SDS011;47622;47.726;3.298;2022-11-10T14:51:23;8.27;;;3.60;;
61702;SDS011;47622;47.726;3.298;2022-11-10T14:53:55;4.00;;;3.30;;
61702;SDS011;47622;47.726;3.298;2022-11-10T14:56:24;5.03;;;3.20;;
61702;SDS011;47622;47.726;3.298;2022-11-10T14:58:52;5.57;;;3.60;;
61702;SDS011;47622;47.726;3.298;2022-11-10T15:01:23;5.28;;;2.92;;
61702;SDS011;47622;47.726;3.298;2022-11-10T15:03:59;5.00;;;2.95;;
61702;SDS011;47622;47.726;3.298;2022-11-10T15:06:27;5.55;;;3.60;;
61702;SDS011;47622;47.726;3.298;2022-11-10T15:08:53;6.07;;;3.17;;
61702;SDS011;47622;47.726;3.298;2022-11-10T15:11:39;5.53;;;3.10;;
61702;SDS011;47622;47.726;3.298;2022-11-10T15:14:30;6.22;;;3.95;;
61702;SDS011;47622;47.726;3.298;2022-11-10T15:17:14;6.90;;;3.90;;
61702;SDS011;47622;47.726;3.298;2022-11-10T15:24:48;4.78;;;3.15;;
61702;SDS011;47622;47.726;3.298;2022-11-10T15:27:24;6.85;;;3.83;;
61702;SDS011;47622;47.726;3.298;2022-11-10T15:29:52;8.63;;;4.38;;
61702;SDS011;47622;47.726;3.298;2022-11-10T15:32:20;6.25;;;4.20;;
61702;SDS011;47622;47.726;3.298;2022-11-10T15:34:48;4.95;;;3.75;;
61702;SDS011;47622;47.726;3.298;2022-11-10T15:37:25;8.52;;;3.65;;
61702;SDS011;47622;47.726;3.298;2022-11-10T15:39:54;8.93;;;4.22;;
61702;SDS011;47622;47.726;3.298;2022-11-10T15:45:59;8.07;;;4.45;;
61702;SDS011;47622;47.726;3.298;2022-11-10T15:48:49;6.82;;;3.92;;
61702;SDS011;47622;47.726;3.298;2022-11-10T15:51:16;6.95;;;4.35;;
61702;SDS011;47622;47.726;3.298;2022-11-10T15:53:45;9.60;;;5.00;;
61702;SDS011;47622;47.726;3.298;2022-11-10T15:56:13;9.95;;;5.32;;
61702;SDS011;47622;47.726;3.298;2022-11-10T15:58:42;7.20;;;4.75;;
61702;SDS011;47622;47.726;3.298;2022-11-10T16:01:10;11.57;;;5.90;;
61702;SDS011;47622;47.726;3.298;2022-11-10T16:03:37;7.80;;;4.93;;
61702;SDS011;47622;47.726;3.298;2022-11-10T16:06:02;7.38;;;5.00;;
61702;SDS011;47622;47.726;3.298;2022-11-10T16:08:28;10.02;;;5.03;;
61702;SDS011;47622;47.726;3.298;2022-11-10T16:10:56;7.55;;;3.90;;
61702;SDS011;47622;47.726;3.298;2022-11-10T16:13:26;7.93;;;4.13;;
61702;SDS011;47622;47.726;3.298;2022-11-10T16:15:54;6.37;;;4.23;;
61702;SDS011;47622;47.726;3.298;2022-11-10T16:18:21;6.65;;;4.40;;
61702;SDS011;47622;47.726;3.298;2022-11-10T16:20:48;7.68;;;4.15;;
61702;SDS011;47622;47.726;3.298;2022-11-10T16:23:15;9.88;;;4.20;;
61702;SDS011;47622;47.726;3.298;2022-11-10T16:25:41;8.85;;;4.63;;
61702;SDS011;47622;47.726;3.298;2022-11-10T16:28:09;8.77;;;4.22;;
61702;SDS011;47622;47.726;3.298;2022-11-10T16:30:37;10.38;;;4.50;;
61702;SDS011;47622;47.726;3.298;2022-11-10T16:33:03;8.38;;;5.10;;
61702;SDS011;47622;47.726;3.298;2022-11-10T16:35:29;6.53;;;4.95;;
61702;SDS011;47622;47.726;3.298;2022-11-10T16:37:55;9.05;;;5.50;;
61702;SDS011;47622;47.726;3.298;2022-11-10T16:40:21;8.93;;;4.50;;
61702;SDS011;47622;47.726;3.298;2022-11-10T16:42:48;10.80;;;4.72;;
61702;SDS011;47622;47.726;3.298;2022-11-10T16:45:15;6.95;;;4.60;;
61702;SDS011;47622;47.726;3.298;2022-11-10T16:47:49;7.57;;;4.43;;
61702;SDS011;47622;47.726;3.298;2022-11-10T16:50:24;9.23;;;5.47;;
61702;SDS011;47622;47.726;3.298;2022-11-10T16:52:55;9.25;;;5.10;;
61702;SDS011;47622;47.726;3.298;2022-11-10T16:55:21;7.50;;;5.20;;
61702;SDS011;47622;47.726;3.298;2022-11-10T16:57:47;7.75;;;5.05;;
61702;SDS011;47622;47.726;3.298;2022-11-10T17:00:13;8.45;;;5.25;;